Terminal Aerodrome Forecast
Issued by NWS Pittsburgh, PA

Current Version | Previous Version | Graphics & Text | Print | Product List | Glossary On
Versions: 1 2 3 4 5 6 7 8 9 10 11 12 13 14 15 16 17 18 19 20 21 22 23 24 25 26 27 28
000
FTUS41 KPBZ 191458 AAA
TAFPIT
TAF AMD
KPIT 191458Z 1915/2018 31015G25KT 3SM BR VCSH SCT010 OVC025
     FM191800 32015G30KT 5SM BR VCSH BKN025
     FM192200 31010KT P6SM BKN025
     FM201400 32012KT P6SM BKN035=

USA.gov is the U.S. government's official web portal to all federal, state and local government web resources and services.